sensor_id;sensor_type;location;lat;lon;timestamp;P1;durP1;ratioP1;P2;durP2;ratioP2
10847;SDS011;5477;48.806;9.154;2023-12-14T00:02:05;1.20;;;1.10;;
10847;SDS011;5477;48.806;9.154;2023-12-14T00:04:33;2.07;;;1.20;;
10847;SDS011;5477;48.806;9.154;2023-12-14T00:07:01;1.63;;;1.20;;
10847;SDS011;5477;48.806;9.154;2023-12-14T00:09:29;1.83;;;1.20;;
10847;SDS011;5477;48.806;9.154;2023-12-14T00:11:57;2.23;;;1.10;;
10847;SDS011;5477;48.806;9.154;2023-12-14T00:14:25;1.67;;;1.27;;
10847;SDS011;5477;48.806;9.154;2023-12-14T00:16:54;2.53;;;1.20;;
10847;SDS011;5477;48.806;9.154;2023-12-14T00:19:25;1.10;;;1.00;;
10847;SDS011;5477;48.806;9.154;2023-12-14T00:21:53;3.07;;;1.20;;
10847;SDS011;5477;48.806;9.154;2023-12-14T00:24:21;1.03;;;0.93;;
10847;SDS011;5477;48.806;9.154;2023-12-14T00:26:49;3.63;;;1.40;;
10847;SDS011;5477;48.806;9.154;2023-12-14T00:29:17;2.00;;;1.23;;
10847;SDS011;5477;48.806;9.154;2023-12-14T00:31:45;2.07;;;1.50;;
10847;SDS011;5477;48.806;9.154;2023-12-14T00:34:14;2.30;;;1.20;;
10847;SDS011;5477;48.806;9.154;2023-12-14T00:36:42;3.27;;;1.20;;
10847;SDS011;5477;48.806;9.154;2023-12-14T00:39:10;1.03;;;0.90;;
10847;SDS011;5477;48.806;9.154;2023-12-14T00:41:39;2.23;;;1.20;;
10847;SDS011;5477;48.806;9.154;2023-12-14T00:44:07;1.30;;;1.20;;
10847;SDS011;5477;48.806;9.154;2023-12-14T00:46:35;1.67;;;1.20;;
10847;SDS011;5477;48.806;9.154;2023-12-14T00:49:03;3.17;;;1.33;;
10847;SDS011;5477;48.806;9.154;2023-12-14T00:51:32;2.77;;;1.10;;
10847;SDS011;5477;48.806;9.154;2023-12-14T00:54:01;2.40;;;1.30;;
10847;SDS011;5477;48.806;9.154;2023-12-14T00:56:29;3.53;;;1.10;;
10847;SDS011;5477;48.806;9.154;2023-12-14T00:58:57;3.53;;;1.50;;
10847;SDS011;5477;48.806;9.154;2023-12-14T01:01:25;2.83;;;1.80;;
10847;SDS011;5477;48.806;9.154;2023-12-14T01:03:53;3.87;;;1.40;;
10847;SDS011;5477;48.806;9.154;2023-12-14T01:06:21;3.20;;;1.20;;
10847;SDS011;5477;48.806;9.154;2023-12-14T01:08:51;2.67;;;1.40;;
10847;SDS011;5477;48.806;9.154;2023-12-14T01:11:19;3.33;;;1.10;;
10847;SDS011;5477;48.806;9.154;2023-12-14T01:13:46;1.87;;;1.40;;
10847;SDS011;5477;48.806;9.154;2023-12-14T01:16:14;1.63;;;1.10;;
10847;SDS011;5477;48.806;9.154;2023-12-14T01:18:42;1.83;;;1.47;;
10847;SDS011;5477;48.806;9.154;2023-12-14T01:21:11;1.97;;;1.30;;
10847;SDS011;5477;48.806;9.154;2023-12-14T01:23:39;1.87;;;1.30;;
10847;SDS011;5477;48.806;9.154;2023-12-14T01:26:08;2.20;;;1.20;;
10847;SDS011;5477;48.806;9.154;2023-12-14T01:28:37;2.90;;;1.03;;
10847;SDS011;5477;48.806;9.154;2023-12-14T01:31:05;2.33;;;1.20;;
10847;SDS011;5477;48.806;9.154;2023-12-14T01:33:33;1.63;;;1.00;;
10847;SDS011;5477;48.806;9.154;2023-12-14T01:36:01;2.30;;;1.40;;
10847;SDS011;5477;48.806;9.154;2023-12-14T01:38:29;3.37;;;1.40;;
10847;SDS011;5477;48.806;9.154;2023-12-14T01:40:57;2.33;;;1.20;;
10847;SDS011;5477;48.806;9.154;2023-12-14T01:43:27;1.27;;;1.10;;
10847;SDS011;5477;48.806;9.154;2023-12-14T01:45:55;1.00;;;0.93;;
10847;SDS011;5477;48.806;9.154;2023-12-14T01:48:23;1.80;;;1.27;;
10847;SDS011;5477;48.806;9.154;2023-12-14T01:50:51;3.60;;;1.27;;
10847;SDS011;5477;48.806;9.154;2023-12-14T01:53:19;1.90;;;1.23;;
10847;SDS011;5477;48.806;9.154;2023-12-14T01:55:47;1.73;;;1.20;;
10847;SDS011;5477;48.806;9.154;2023-12-14T01:58:16;1.80;;;1.20;;
10847;SDS011;5477;48.806;9.154;2023-12-14T02:00:45;1.53;;;1.20;;
10847;SDS011;5477;48.806;9.154;2023-12-14T02:03:17;1.93;;;1.30;;
10847;SDS011;5477;48.806;9.154;2023-12-14T02:05:46;1.80;;;1.03;;
10847;SDS011;5477;48.806;9.154;2023-12-14T02:08:14;1.30;;;1.13;;
10847;SDS011;5477;48.806;9.154;2023-12-14T02:10:42;3.07;;;1.20;;
10847;SDS011;5477;48.806;9.154;2023-12-14T02:13:10;2.30;;;1.20;;
10847;SDS011;5477;48.806;9.154;2023-12-14T02:15:38;2.87;;;1.10;;
10847;SDS011;5477;48.806;9.154;2023-12-14T02:18:08;1.93;;;1.13;;
10847;SDS011;5477;48.806;9.154;2023-12-14T02:20:38;1.40;;;1.10;;
10847;SDS011;5477;48.806;9.154;2023-12-14T02:23:07;2.40;;;1.50;;
10847;SDS011;5477;48.806;9.154;2023-12-14T02:25:35;5.73;;;1.30;;
10847;SDS011;5477;48.806;9.154;2023-12-14T02:28:03;2.53;;;1.20;;
10847;SDS011;5477;48.806;9.154;2023-12-14T02:30:31;1.70;;;1.17;;
10847;SDS011;5477;48.806;9.154;2023-12-14T02:32:59;1.33;;;1.23;;
10847;SDS011;5477;48.806;9.154;2023-12-14T02:35:27;2.53;;;1.20;;
10847;SDS011;5477;48.806;9.154;2023-12-14T02:37:55;1.57;;;1.47;;
10847;SDS011;5477;48.806;9.154;2023-12-14T02:40:24;2.20;;;1.30;;
10847;SDS011;5477;48.806;9.154;2023-12-14T02:42:52;1.70;;;1.20;;
10847;SDS011;5477;48.806;9.154;2023-12-14T02:45:20;2.30;;;1.00;;
10847;SDS011;5477;48.806;9.154;2023-12-14T02:47:48;1.07;;;0.90;;
10847;SDS011;5477;48.806;9.154;2023-12-14T02:50:18;1.00;;;0.90;;
10847;SDS011;5477;48.806;9.154;2023-12-14T02:52:46;1.57;;;1.20;;
10847;SDS011;5477;48.806;9.154;2023-12-14T02:55:14;1.73;;;1.27;;
10847;SDS011;5477;48.806;9.154;2023-12-14T02:57:43;2.10;;;1.47;;
10847;SDS011;5477;48.806;9.154;2023-12-14T03:00:12;2.33;;;1.10;;
10847;SDS011;5477;48.806;9.154;2023-12-14T03:02:41;1.00;;;0.90;;
10847;SDS011;5477;48.806;9.154;2023-12-14T03:05:09;2.67;;;1.37;;
10847;SDS011;5477;48.806;9.154;2023-12-14T03:07:37;3.10;;;1.30;;
10847;SDS011;5477;48.806;9.154;2023-12-14T03:10:05;3.27;;;1.10;;
10847;SDS011;5477;48.806;9.154;2023-12-14T03:12:34;1.40;;;1.00;;
10847;SDS011;5477;48.806;9.154;2023-12-14T03:15:04;1.57;;;1.20;;
10847;SDS011;5477;48.806;9.154;2023-12-14T03:17:33;3.07;;;1.20;;
10847;SDS011;5477;48.806;9.154;2023-12-14T03:20:01;1.30;;;1.20;;
10847;SDS011;5477;48.806;9.154;2023-12-14T03:22:31;2.20;;;1.10;;
10847;SDS011;5477;48.806;9.154;2023-12-14T03:25:00;1.87;;;1.10;;
10847;SDS011;5477;48.806;9.154;2023-12-14T03:27:30;1.10;;;0.93;;
10847;SDS011;5477;48.806;9.154;2023-12-14T03:29:57;2.17;;;1.00;;
10847;SDS011;5477;48.806;9.154;2023-12-14T03:32:27;2.50;;;0.90;;
10847;SDS011;5477;48.806;9.154;2023-12-14T03:34:55;1.00;;;0.90;;
10847;SDS011;5477;48.806;9.154;2023-12-14T03:37:24;2.43;;;1.27;;
10847;SDS011;5477;48.806;9.154;2023-12-14T03:39:52;1.23;;;1.13;;
10847;SDS011;5477;48.806;9.154;2023-12-14T03:42:20;1.70;;;1.00;;
10847;SDS011;5477;48.806;9.154;2023-12-14T03:44:48;2.33;;;0.80;;
10847;SDS011;5477;48.806;9.154;2023-12-14T03:47:16;2.00;;;0.90;;
10847;SDS011;5477;48.806;9.154;2023-12-14T03:49:45;0.87;;;0.80;;
10847;SDS011;5477;48.806;9.154;2023-12-14T03:52:13;2.30;;;0.90;;
10847;SDS011;5477;48.806;9.154;2023-12-14T03:54:41;0.80;;;0.80;;
10847;SDS011;5477;48.806;9.154;2023-12-14T03:57:09;1.00;;;0.90;;
10847;SDS011;5477;48.806;9.154;2023-12-14T03:59:38;1.07;;;0.93;;
10847;SDS011;5477;48.806;9.154;2023-12-14T04:02:06;1.93;;;1.00;;
10847;SDS011;5477;48.806;9.154;2023-12-14T04:04:35;1.50;;;0.90;;
10847;SDS011;5477;48.806;9.154;2023-12-14T04:07:04;1.53;;;0.90;;
10847;SDS011;5477;48.806;9.154;2023-12-14T04:09:32;2.03;;;0.90;;
10847;SDS011;5477;48.806;9.154;2023-12-14T04:12:00;1.30;;;0.90;;
10847;SDS011;5477;48.806;9.154;2023-12-14T04:14:28;1.03;;;0.90;;
10847;SDS011;5477;48.806;9.154;2023-12-14T04:16:56;1.40;;;1.17;;
10847;SDS011;5477;48.806;9.154;2023-12-14T04:19:24;2.60;;;1.50;;
10847;SDS011;5477;48.806;9.154;2023-12-14T04:22:09;1.40;;;1.00;;
10847;SDS011;5477;48.806;9.154;2023-12-14T04:24:37;1.57;;;0.90;;
10847;SDS011;5477;48.806;9.154;2023-12-14T04:27:05;2.70;;;1.10;;
10847;SDS011;5477;48.806;9.154;2023-12-14T04:29:33;1.47;;;0.90;;
10847;SDS011;5477;48.806;9.154;2023-12-14T04:32:01;1.10;;;1.00;;
10847;SDS011;5477;48.806;9.154;2023-12-14T04:34:29;1.83;;;1.00;;
10847;SDS011;5477;48.806;9.154;2023-12-14T04:36:57;1.13;;;1.07;;
10847;SDS011;5477;48.806;9.154;2023-12-14T04:39:27;1.17;;;1.03;;
10847;SDS011;5477;48.806;9.154;2023-12-14T04:41:55;3.23;;;0.90;;
10847;SDS011;5477;48.806;9.154;2023-12-14T04:44:23;1.23;;;0.93;;
10847;SDS011;5477;48.806;9.154;2023-12-14T04:46:57;1.53;;;0.90;;
10847;SDS011;5477;48.806;9.154;2023-12-14T04:49:25;2.50;;;1.00;;
10847;SDS011;5477;48.806;9.154;2023-12-14T04:51:53;1.40;;;0.90;;
10847;SDS011;5477;48.806;9.154;2023-12-14T04:54:21;1.10;;;1.00;;
10847;SDS011;5477;48.806;9.154;2023-12-14T04:56:50;1.60;;;1.00;;
10847;SDS011;5477;48.806;9.154;2023-12-14T04:59:18;3.70;;;1.10;;
10847;SDS011;5477;48.806;9.154;2023-12-14T05:01:46;1.60;;;1.07;;
10847;SDS011;5477;48.806;9.154;2023-12-14T05:04:14;3.67;;;1.27;;
10847;SDS011;5477;48.806;9.154;2023-12-14T05:06:42;2.00;;;1.40;;
10847;SDS011;5477;48.806;9.154;2023-12-14T05:09:10;3.47;;;1.27;;
10847;SDS011;5477;48.806;9.154;2023-12-14T05:11:39;1.67;;;1.20;;
10847;SDS011;5477;48.806;9.154;2023-12-14T05:14:10;1.40;;;1.30;;
10847;SDS011;5477;48.806;9.154;2023-12-14T05:16:38;2.73;;;1.67;;
10847;SDS011;5477;48.806;9.154;2023-12-14T05:19:06;1.93;;;1.20;;
10847;SDS011;5477;48.806;9.154;2023-12-14T05:21:34;1.97;;;1.30;;
10847;SDS011;5477;48.806;9.154;2023-12-14T05:24:02;4.30;;;1.17;;
10847;SDS011;5477;48.806;9.154;2023-12-14T05:26:31;1.87;;;1.43;;
10847;SDS011;5477;48.806;9.154;2023-12-14T05:28:59;1.47;;;1.30;;
10847;SDS011;5477;48.806;9.154;2023-12-14T05:31:28;2.27;;;1.27;;
10847;SDS011;5477;48.806;9.154;2023-12-14T05:33:56;2.23;;;1.37;;
10847;SDS011;5477;48.806;9.154;2023-12-14T05:36:24;1.97;;;1.40;;
10847;SDS011;5477;48.806;9.154;2023-12-14T05:38:52;1.30;;;1.10;;
10847;SDS011;5477;48.806;9.154;2023-12-14T05:41:20;2.83;;;1.30;;
10847;SDS011;5477;48.806;9.154;2023-12-14T05:43:48;1.30;;;1.20;;
10847;SDS011;5477;48.806;9.154;2023-12-14T05:46:20;3.83;;;2.03;;
10847;SDS011;5477;48.806;9.154;2023-12-14T05:48:50;2.87;;;1.60;;
10847;SDS011;5477;48.806;9.154;2023-12-14T05:51:27;3.03;;;1.50;;
10847;SDS011;5477;48.806;9.154;2023-12-14T05:53:56;1.67;;;1.47;;
10847;SDS011;5477;48.806;9.154;2023-12-14T05:56:24;2.03;;;1.60;;
10847;SDS011;5477;48.806;9.154;2023-12-14T05:58:52;2.57;;;1.70;;
10847;SDS011;5477;48.806;9.154;2023-12-14T06:01:21;3.50;;;1.50;;
10847;SDS011;5477;48.806;9.154;2023-12-14T06:03:52;1.33;;;1.23;;
10847;SDS011;5477;48.806;9.154;2023-12-14T06:06:21;2.57;;;1.80;;
10847;SDS011;5477;48.806;9.154;2023-12-14T06:08:50;2.90;;;1.70;;
10847;SDS011;5477;48.806;9.154;2023-12-14T06:11:18;3.90;;;1.60;;
10847;SDS011;5477;48.806;9.154;2023-12-14T06:13:46;4.00;;;1.70;;
10847;SDS011;5477;48.806;9.154;2023-12-14T06:16:14;2.73;;;1.60;;
10847;SDS011;5477;48.806;9.154;2023-12-14T06:18:42;1.93;;;1.73;;
10847;SDS011;5477;48.806;9.154;2023-12-14T06:21:12;4.07;;;1.80;;
10847;SDS011;5477;48.806;9.154;2023-12-14T06:23:40;2.57;;;1.70;;
10847;SDS011;5477;48.806;9.154;2023-12-14T06:26:08;2.93;;;1.90;;
10847;SDS011;5477;48.806;9.154;2023-12-14T06:28:36;3.80;;;1.70;;
10847;SDS011;5477;48.806;9.154;2023-12-14T06:31:05;1.93;;;1.60;;
10847;SDS011;5477;48.806;9.154;2023-12-14T06:33:34;2.00;;;1.70;;
10847;SDS011;5477;48.806;9.154;2023-12-14T06:36:03;3.77;;;1.70;;
10847;SDS011;5477;48.806;9.154;2023-12-14T06:38:33;2.33;;;1.70;;
10847;SDS011;5477;48.806;9.154;2023-12-14T06:41:01;2.07;;;1.60;;
10847;SDS011;5477;48.806;9.154;2023-12-14T06:43:29;3.60;;;1.73;;
10847;SDS011;5477;48.806;9.154;2023-12-14T06:45:57;2.40;;;1.70;;
10847;SDS011;5477;48.806;9.154;2023-12-14T06:48:25;4.10;;;1.73;;
10847;SDS011;5477;48.806;9.154;2023-12-14T06:50:53;2.33;;;1.83;;
10847;SDS011;5477;48.806;9.154;2023-12-14T06:53:22;3.20;;;1.80;;
10847;SDS011;5477;48.806;9.154;2023-12-14T06:55:51;2.80;;;1.90;;
10847;SDS011;5477;48.806;9.154;2023-12-14T06:58:19;2.70;;;1.93;;
10847;SDS011;5477;48.806;9.154;2023-12-14T07:00:47;3.10;;;2.00;;
10847;SDS011;5477;48.806;9.154;2023-12-14T07:03:16;3.47;;;2.30;;
10847;SDS011;5477;48.806;9.154;2023-12-14T07:05:44;7.23;;;4.37;;
10847;SDS011;5477;48.806;9.154;2023-12-14T07:08:12;6.03;;;4.33;;
10847;SDS011;5477;48.806;9.154;2023-12-14T07:10:40;2.50;;;2.30;;
10847;SDS011;5477;48.806;9.154;2023-12-14T07:13:10;2.53;;;2.33;;
10847;SDS011;5477;48.806;9.154;2023-12-14T07:15:38;2.63;;;2.03;;
10847;SDS011;5477;48.806;9.154;2023-12-14T07:18:06;3.70;;;2.40;;
10847;SDS011;5477;48.806;9.154;2023-12-14T07:20:34;2.43;;;2.20;;
10847;SDS011;5477;48.806;9.154;2023-12-14T07:23:02;3.60;;;2.57;;
10847;SDS011;5477;48.806;9.154;2023-12-14T07:25:30;3.10;;;2.80;;
10847;SDS011;5477;48.806;9.154;2023-12-14T07:27:58;3.73;;;2.50;;
10847;SDS011;5477;48.806;9.154;2023-12-14T07:30:28;3.23;;;2.53;;
10847;SDS011;5477;48.806;9.154;2023-12-14T07:32:56;3.17;;;2.60;;
10847;SDS011;5477;48.806;9.154;2023-12-14T07:35:24;4.10;;;2.43;;
10847;SDS011;5477;48.806;9.154;2023-12-14T07:37:52;3.23;;;2.50;;
10847;SDS011;5477;48.806;9.154;2023-12-14T07:40:20;3.10;;;2.50;;
10847;SDS011;5477;48.806;9.154;2023-12-14T07:42:48;4.23;;;2.80;;
10847;SDS011;5477;48.806;9.154;2023-12-14T07:45:16;5.33;;;3.10;;
10847;SDS011;5477;48.806;9.154;2023-12-14T07:47:46;3.17;;;2.87;;
10847;SDS011;5477;48.806;9.154;2023-12-14T07:50:14;6.20;;;2.93;;
10847;SDS011;5477;48.806;9.154;2023-12-14T07:52:42;7.27;;;3.30;;
10847;SDS011;5477;48.806;9.154;2023-12-14T07:55:10;4.00;;;3.30;;
10847;SDS011;5477;48.806;9.154;2023-12-14T07:57:39;3.93;;;3.23;;
10847;SDS011;5477;48.806;9.154;2023-12-14T08:00:08;3.87;;;3.40;;
10847;SDS011;5477;48.806;9.154;2023-12-14T08:02:37;6.57;;;3.70;;
10847;SDS011;5477;48.806;9.154;2023-12-14T08:05:07;7.30;;;4.20;;
10847;SDS011;5477;48.806;9.154;2023-12-14T08:07:35;3.93;;;3.53;;
10847;SDS011;5477;48.806;9.154;2023-12-14T08:10:03;7.60;;;3.97;;
10847;SDS011;5477;48.806;9.154;2023-12-14T08:12:32;6.37;;;4.10;;
10847;SDS011;5477;48.806;9.154;2023-12-14T08:15:00;6.93;;;4.03;;
10847;SDS011;5477;48.806;9.154;2023-12-14T08:17:28;7.43;;;3.77;;
10847;SDS011;5477;48.806;9.154;2023-12-14T08:19:56;5.07;;;3.70;;
10847;SDS011;5477;48.806;9.154;2023-12-14T08:22:26;4.87;;;3.87;;
10847;SDS011;5477;48.806;9.154;2023-12-14T08:24:54;5.67;;;3.97;;
10847;SDS011;5477;48.806;9.154;2023-12-14T08:27:22;6.00;;;4.20;;
10847;SDS011;5477;48.806;9.154;2023-12-14T08:29:50;5.83;;;4.60;;
10847;SDS011;5477;48.806;9.154;2023-12-14T08:32:18;7.67;;;4.40;;
10847;SDS011;5477;48.806;9.154;2023-12-14T08:34:46;6.63;;;4.83;;
10847;SDS011;5477;48.806;9.154;2023-12-14T08:37:14;5.73;;;4.37;;
10847;SDS011;5477;48.806;9.154;2023-12-14T08:39:43;5.90;;;4.17;;
10847;SDS011;5477;48.806;9.154;2023-12-14T08:42:11;6.20;;;4.73;;
10847;SDS011;5477;48.806;9.154;2023-12-14T08:44:39;5.47;;;4.50;;
10847;SDS011;5477;48.806;9.154;2023-12-14T08:47:07;5.73;;;5.13;;
10847;SDS011;5477;48.806;9.154;2023-12-14T08:49:36;7.43;;;5.50;;
10847;SDS011;5477;48.806;9.154;2023-12-14T08:52:04;14.13;;;5.70;;
10847;SDS011;5477;48.806;9.154;2023-12-14T08:54:32;9.30;;;5.77;;
10847;SDS011;5477;48.806;9.154;2023-12-14T08:57:02;8.77;;;5.57;;
10847;SDS011;5477;48.806;9.154;2023-12-14T08:59:30;7.17;;;5.67;;
10847;SDS011;5477;48.806;9.154;2023-12-14T09:01:58;6.90;;;6.20;;
10847;SDS011;5477;48.806;9.154;2023-12-14T09:04:26;6.43;;;5.57;;
10847;SDS011;5477;48.806;9.154;2023-12-14T09:06:54;7.37;;;5.73;;
10847;SDS011;5477;48.806;9.154;2023-12-14T09:09:22;5.77;;;4.27;;
10847;SDS011;5477;48.806;9.154;2023-12-14T09:11:50;6.47;;;4.27;;
10847;SDS011;5477;48.806;9.154;2023-12-14T09:14:22;5.30;;;4.43;;
10847;SDS011;5477;48.806;9.154;2023-12-14T09:16:50;5.17;;;4.40;;
10847;SDS011;5477;48.806;9.154;2023-12-14T09:19:18;6.00;;;4.50;;
10847;SDS011;5477;48.806;9.154;2023-12-14T09:21:46;6.77;;;5.03;;
10847;SDS011;5477;48.806;9.154;2023-12-14T09:24:14;7.33;;;4.53;;
10847;SDS011;5477;48.806;9.154;2023-12-14T09:26:42;7.30;;;4.80;;
10847;SDS011;5477;48.806;9.154;2023-12-14T09:29:10;7.77;;;5.00;;
10847;SDS011;5477;48.806;9.154;2023-12-14T09:31:41;6.10;;;5.47;;
10847;SDS011;5477;48.806;9.154;2023-12-14T09:34:10;7.07;;;5.90;;
10847;SDS011;5477;48.806;9.154;2023-12-14T09:36:39;7.87;;;6.53;;
10847;SDS011;5477;48.806;9.154;2023-12-14T09:39:07;7.97;;;6.40;;
10847;SDS011;5477;48.806;9.154;2023-12-14T09:41:37;9.13;;;6.60;;
10847;SDS011;5477;48.806;9.154;2023-12-14T09:44:05;7.57;;;6.50;;
10847;SDS011;5477;48.806;9.154;2023-12-14T09:46:36;9.07;;;7.10;;
10847;SDS011;5477;48.806;9.154;2023-12-14T09:49:06;10.27;;;6.87;;
10847;SDS011;5477;48.806;9.154;2023-12-14T09:51:35;10.30;;;7.80;;
10847;SDS011;5477;48.806;9.154;2023-12-14T09:54:03;9.43;;;7.93;;
10847;SDS011;5477;48.806;9.154;2023-12-14T09:56:32;10.07;;;8.20;;
10847;SDS011;5477;48.806;9.154;2023-12-14T09:59:00;10.63;;;7.60;;
10847;SDS011;5477;48.806;9.154;2023-12-14T10:01:30;10.30;;;7.70;;
10847;SDS011;5477;48.806;9.154;2023-12-14T10:04:08;9.87;;;8.30;;
10847;SDS011;5477;48.806;9.154;2023-12-14T10:06:37;10.13;;;8.33;;
10847;SDS011;5477;48.806;9.154;2023-12-14T10:09:06;10.07;;;8.40;;
10847;SDS011;5477;48.806;9.154;2023-12-14T10:11:36;9.83;;;7.97;;
10847;SDS011;5477;48.806;9.154;2023-12-14T10:14:08;9.70;;;7.90;;
10847;SDS011;5477;48.806;9.154;2023-12-14T10:16:46;12.80;;;7.87;;
10847;SDS011;5477;48.806;9.154;2023-12-14T10:19:17;10.40;;;8.33;;
10847;SDS011;5477;48.806;9.154;2023-12-14T10:21:46;8.23;;;7.30;;
10847;SDS011;5477;48.806;9.154;2023-12-14T10:24:15;9.03;;;7.40;;
10847;SDS011;5477;48.806;9.154;2023-12-14T10:26:46;10.77;;;7.50;;
10847;SDS011;5477;48.806;9.154;2023-12-14T10:29:14;9.47;;;7.80;;
10847;SDS011;5477;48.806;9.154;2023-12-14T10:31:42;8.37;;;7.20;;
10847;SDS011;5477;48.806;9.154;2023-12-14T10:34:11;10.37;;;7.50;;
10847;SDS011;5477;48.806;9.154;2023-12-14T10:36:41;9.83;;;7.03;;
10847;SDS011;5477;48.806;9.154;2023-12-14T10:39:14;8.47;;;7.43;;
10847;SDS011;5477;48.806;9.154;2023-12-14T10:41:43;8.67;;;7.13;;
10847;SDS011;5477;48.806;9.154;2023-12-14T10:44:20;8.30;;;6.33;;
10847;SDS011;5477;48.806;9.154;2023-12-14T10:47:08;9.77;;;6.60;;
10847;SDS011;5477;48.806;9.154;2023-12-14T10:49:37;8.47;;;5.90;;
10847;SDS011;5477;48.806;9.154;2023-12-14T10:52:07;7.83;;;7.03;;
10847;SDS011;5477;48.806;9.154;2023-12-14T10:54:35;8.10;;;6.10;;
10847;SDS011;5477;48.806;9.154;2023-12-14T10:57:05;10.47;;;6.00;;
10847;SDS011;5477;48.806;9.154;2023-12-14T10:59:35;9.27;;;5.40;;
10847;SDS011;5477;48.806;9.154;2023-12-14T11:02:06;8.13;;;5.60;;
10847;SDS011;5477;48.806;9.154;2023-12-14T11:10:20;8.20;;;6.00;;
10847;SDS011;5477;48.806;9.154;2023-12-14T11:12:55;9.53;;;6.30;;
10847;SDS011;5477;48.806;9.154;2023-12-14T11:15:27;9.83;;;5.53;;
10847;SDS011;5477;48.806;9.154;2023-12-14T11:20:47;8.20;;;6.13;;
10847;SDS011;5477;48.806;9.154;2023-12-14T11:23:25;6.80;;;5.00;;
10847;SDS011;5477;48.806;9.154;2023-12-14T11:25:57;9.03;;;4.90;;
10847;SDS011;5477;48.806;9.154;2023-12-14T11:28:26;8.07;;;5.00;;
10847;SDS011;5477;48.806;9.154;2023-12-14T11:30:56;5.90;;;4.70;;
10847;SDS011;5477;48.806;9.154;2023-12-14T11:33:24;6.43;;;4.50;;
10847;SDS011;5477;48.806;9.154;2023-12-14T11:35:55;5.97;;;4.30;;
10847;SDS011;5477;48.806;9.154;2023-12-14T11:38:25;5.37;;;4.23;;
10847;SDS011;5477;48.806;9.154;2023-12-14T11:40:53;5.43;;;4.10;;
10847;SDS011;5477;48.806;9.154;2023-12-14T11:43:21;7.20;;;3.70;;
10847;SDS011;5477;48.806;9.154;2023-12-14T11:45:51;7.97;;;4.97;;
10847;SDS011;5477;48.806;9.154;2023-12-14T11:48:21;9.03;;;4.83;;
10847;SDS011;5477;48.806;9.154;2023-12-14T11:50:49;5.87;;;4.43;;
10847;SDS011;5477;48.806;9.154;2023-12-14T11:53:17;5.33;;;3.77;;
10847;SDS011;5477;48.806;9.154;2023-12-14T11:55:47;3.73;;;3.20;;
10847;SDS011;5477;48.806;9.154;2023-12-14T11:58:15;5.77;;;3.73;;
10847;SDS011;5477;48.806;9.154;2023-12-14T12:00:43;2.90;;;2.60;;
10847;SDS011;5477;48.806;9.154;2023-12-14T12:03:14;1.93;;;1.60;;
10847;SDS011;5477;48.806;9.154;2023-12-14T12:05:44;1.93;;;1.73;;
10847;SDS011;5477;48.806;9.154;2023-12-14T12:08:14;2.07;;;1.80;;
10847;SDS011;5477;48.806;9.154;2023-12-14T12:10:47;2.43;;;1.90;;
10847;SDS011;5477;48.806;9.154;2023-12-14T12:13:16;3.70;;;2.10;;
10847;SDS011;5477;48.806;9.154;2023-12-14T12:15:45;3.30;;;2.00;;
10847;SDS011;5477;48.806;9.154;2023-12-14T12:18:15;3.17;;;2.20;;
10847;SDS011;5477;48.806;9.154;2023-12-14T12:20:44;4.07;;;2.53;;
10847;SDS011;5477;48.806;9.154;2023-12-14T12:23:13;3.17;;;2.20;;
10847;SDS011;5477;48.806;9.154;2023-12-14T12:25:42;3.50;;;2.30;;
10847;SDS011;5477;48.806;9.154;2023-12-14T12:28:12;4.00;;;2.40;;
10847;SDS011;5477;48.806;9.154;2023-12-14T12:30:40;4.20;;;2.20;;
10847;SDS011;5477;48.806;9.154;2023-12-14T12:33:09;3.10;;;1.73;;
10847;SDS011;5477;48.806;9.154;2023-12-14T12:35:37;2.40;;;2.03;;
10847;SDS011;5477;48.806;9.154;2023-12-14T12:38:05;2.50;;;1.97;;
10847;SDS011;5477;48.806;9.154;2023-12-14T12:40:33;2.37;;;2.10;;
10847;SDS011;5477;48.806;9.154;2023-12-14T12:43:02;3.77;;;1.90;;
10847;SDS011;5477;48.806;9.154;2023-12-14T12:45:31;2.60;;;2.00;;
10847;SDS011;5477;48.806;9.154;2023-12-14T12:47:59;2.30;;;1.80;;
10847;SDS011;5477;48.806;9.154;2023-12-14T12:50:29;3.97;;;2.43;;
10847;SDS011;5477;48.806;9.154;2023-12-14T12:52:57;2.63;;;1.80;;
10847;SDS011;5477;48.806;9.154;2023-12-14T12:55:25;3.67;;;2.20;;
10847;SDS011;5477;48.806;9.154;2023-12-14T12:57:53;3.43;;;1.97;;
10847;SDS011;5477;48.806;9.154;2023-12-14T13:00:21;4.17;;;2.40;;
10847;SDS011;5477;48.806;9.154;2023-12-14T13:02:51;3.00;;;2.10;;
10847;SDS011;5477;48.806;9.154;2023-12-14T13:05:19;3.97;;;2.77;;
10847;SDS011;5477;48.806;9.154;2023-12-14T13:07:49;3.67;;;2.50;;
10847;SDS011;5477;48.806;9.154;2023-12-14T13:10:17;3.07;;;2.50;;
10847;SDS011;5477;48.806;9.154;2023-12-14T13:12:57;3.03;;;2.73;;
10847;SDS011;5477;48.806;9.154;2023-12-14T13:15:25;3.93;;;2.90;;
10847;SDS011;5477;48.806;9.154;2023-12-14T13:17:56;6.47;;;3.30;;
10847;SDS011;5477;48.806;9.154;2023-12-14T13:20:25;5.43;;;2.53;;
10847;SDS011;5477;48.806;9.154;2023-12-14T13:22:53;5.57;;;3.70;;
10847;SDS011;5477;48.806;9.154;2023-12-14T13:25:21;4.47;;;2.70;;
10847;SDS011;5477;48.806;9.154;2023-12-14T13:27:52;4.23;;;2.77;;
10847;SDS011;5477;48.806;9.154;2023-12-14T13:30:20;4.37;;;3.20;;
10847;SDS011;5477;48.806;9.154;2023-12-14T13:32:49;4.73;;;4.23;;
10847;SDS011;5477;48.806;9.154;2023-12-14T13:35:18;5.97;;;3.90;;
10847;SDS011;5477;48.806;9.154;2023-12-14T13:37:48;12.27;;;6.93;;
10847;SDS011;5477;48.806;9.154;2023-12-14T13:40:16;4.50;;;3.20;;
10847;SDS011;5477;48.806;9.154;2023-12-14T13:42:45;5.37;;;3.60;;
10847;SDS011;5477;48.806;9.154;2023-12-14T13:45:29;5.57;;;3.27;;
10847;SDS011;5477;48.806;9.154;2023-12-14T13:47:57;5.23;;;3.53;;
10847;SDS011;5477;48.806;9.154;2023-12-14T13:50:27;3.47;;;3.17;;
10847;SDS011;5477;48.806;9.154;2023-12-14T13:52:55;6.77;;;3.70;;
10847;SDS011;5477;48.806;9.154;2023-12-14T13:55:23;5.60;;;3.40;;
10847;SDS011;5477;48.806;9.154;2023-12-14T13:57:52;4.33;;;3.17;;
10847;SDS011;5477;48.806;9.154;2023-12-14T14:00:20;5.80;;;4.13;;
10847;SDS011;5477;48.806;9.154;2023-12-14T14:02:48;6.10;;;4.20;;
10847;SDS011;5477;48.806;9.154;2023-12-14T14:05:16;6.57;;;5.40;;
10847;SDS011;5477;48.806;9.154;2023-12-14T14:07:45;6.37;;;4.80;;
10847;SDS011;5477;48.806;9.154;2023-12-14T14:10:14;7.13;;;5.33;;
10847;SDS011;5477;48.806;9.154;2023-12-14T14:12:43;5.60;;;4.70;;
10847;SDS011;5477;48.806;9.154;2023-12-14T14:15:11;7.03;;;6.03;;
10847;SDS011;5477;48.806;9.154;2023-12-14T14:17:39;9.23;;;6.70;;
10847;SDS011;5477;48.806;9.154;2023-12-14T14:20:07;9.10;;;6.00;;
10847;SDS011;5477;48.806;9.154;2023-12-14T14:22:36;8.30;;;6.50;;
10847;SDS011;5477;48.806;9.154;2023-12-14T14:25:06;7.53;;;6.07;;
10847;SDS011;5477;48.806;9.154;2023-12-14T14:27:34;11.10;;;7.40;;
10847;SDS011;5477;48.806;9.154;2023-12-14T14:30:04;9.83;;;6.40;;
10847;SDS011;5477;48.806;9.154;2023-12-14T14:32:33;8.13;;;6.63;;
10847;SDS011;5477;48.806;9.154;2023-12-14T14:35:04;9.27;;;6.20;;
10847;SDS011;5477;48.806;9.154;2023-12-14T14:37:33;9.00;;;6.50;;
10847;SDS011;5477;48.806;9.154;2023-12-14T14:40:01;10.10;;;6.27;;
10847;SDS011;5477;48.806;9.154;2023-12-14T14:42:31;10.10;;;6.20;;
10847;SDS011;5477;48.806;9.154;2023-12-14T14:45:00;9.67;;;6.87;;
10847;SDS011;5477;48.806;9.154;2023-12-14T14:47:28;13.53;;;8.17;;
10847;SDS011;5477;48.806;9.154;2023-12-14T14:49:56;9.93;;;7.90;;
10847;SDS011;5477;48.806;9.154;2023-12-14T14:52:30;10.10;;;8.03;;
10847;SDS011;5477;48.806;9.154;2023-12-14T14:54:59;13.57;;;8.07;;
10847;SDS011;5477;48.806;9.154;2023-12-14T14:57:28;11.50;;;7.73;;
10847;SDS011;5477;48.806;9.154;2023-12-14T14:59:57;12.30;;;7.70;;
10847;SDS011;5477;48.806;9.154;2023-12-14T15:02:25;11.63;;;7.27;;
10847;SDS011;5477;48.806;9.154;2023-12-14T15:04:53;12.67;;;8.17;;
10847;SDS011;5477;48.806;9.154;2023-12-14T15:07:21;12.47;;;8.63;;
10847;SDS011;5477;48.806;9.154;2023-12-14T15:09:50;12.10;;;8.70;;
10847;SDS011;5477;48.806;9.154;2023-12-14T15:12:18;13.13;;;9.40;;
10847;SDS011;5477;48.806;9.154;2023-12-14T15:14:46;13.53;;;9.60;;
10847;SDS011;5477;48.806;9.154;2023-12-14T15:17:15;17.87;;;9.50;;
10847;SDS011;5477;48.806;9.154;2023-12-14T15:19:45;13.90;;;10.57;;